| Date | Time | Temp. (oF) | Dew Point (oF) | Rel. Hum. (%) | Press. (in.) | Wind Dir. | Wind Speed (mph) | Hourly Rainfall (in.) |
|
|---|---|---|---|---|---|---|---|---|---|
| 1 | 08/19 | 00:00 | 74 | 68 | 83 | 29.90 | SSE | 0 | 0.00 |
| 2 | 08/18 | 23:00 | 75 | 68 | 79 | 29.89 | N | 3 | 0.00 |
| 3 | 08/18 | 22:00 | 75 | 68 | 80 | 29.88 | S | 0 | 0.00 |
| 4 | 08/18 | 21:00 | 77 | 69 | 79 | 29.88 | SSE | 6 | 0.00 |
| 5 | 08/18 | 20:00 | 79 | 69 | 72 | 29.85 | SSE | 1 | 0.00 |
| 6 | 08/18 | 19:00 | 82 | 68 | 64 | 29.84 | SSE | 3 | 0.00 |
| 7 | 08/18 | 18:00 | 84 | 67 | 58 | 29.84 | SE | 6 | 0.00 |
| 8 | 08/18 | 17:00 | 89 | 65 | 47 | 29.85 | SSW | 0 | 0.00 |
| 9 | 08/18 | 16:00 | 88 | 66 | 50 | 29.87 | SW | 4 | 0.00 |
| 10 | 08/18 | 15:00 | 87 | 68 | 54 | 29.90 | N | 0 | 0.00 |
| 11 | 08/18 | 14:00 | 85 | 68 | 58 | 29.93 | NNE | 2 | 0.00 |
| 12 | 08/18 | 13:00 | 84 | 69 | 63 | 29.94 | NE | 7 | 0.00 |
| 13 | 08/18 | 12:00 | 80 | 67 | 66 | 29.95 | NE | 5 | 0.00 |
| 14 | 08/18 | 11:00 | 78 | 68 | 72 | 29.96 | NNE | 6 | 0.00 |
| 15 | 08/18 | 10:00 | 78 | 70 | 77 | 29.96 | NE | 5 | 0.00 |
| 16 | 08/18 | 09:00 | 74 | 69 | 86 | 29.96 | NNE | 3 | 0.00 |
| 17 | 08/18 | 08:00 | 72 | 70 | 94 | 29.96 | SW | 5 | 0.00 |
| 18 | 08/18 | 07:00 | 72 | 70 | 96 | 29.96 | N | 4 | 0.00 |
| 19 | 08/18 | 06:00 | 72 | 71 | 97 | 29.94 | SW | 2 | 0.00 |
| 20 | 08/18 | 05:00 | 72 | 71 | 99 | 29.93 | S | 0 | 0.00 |
| 21 | 08/18 | 04:00 | 72 | 70 | 95 | 29.93 | SE | 0 | 0.00 |
| 22 | 08/18 | 03:00 | 72 | 70 | 95 | 29.94 | SSE | 0 | 0.00 |
| 23 | 08/18 | 02:00 | 72 | 69 | 93 | 29.95 | SE | 0 | 0.00 |
| 24 | 08/18 | 01:00 | 72 | 69 | 91 | 29.95 | SSE | 0 | 0.01 |